LGAL

Details ICAO LGAL (AXD)
Name Alexandroupolis Dimokritos
Region Greece
Timezone Europe/Athens (UTC+3.0)
Plans Departing 55
Arriving 59
Stats Elevation 24 ft / 7 m (AMSL)
Location 40.855869° 25.956264°
Runways 1
Magnetic Variation 5.106° E
Sunrise 2018-05-23 02:53:41 UTC / 2018-05-23 05:53:41 Local
Sunset 2018-05-23 17:35:01 UTC / 2018-05-23 20:35:01 Local
Advertisement - Login to hide

Runways

ID Width Length Bearing (true) Bearing (mag) Surface Threshold Offset Overrun Length
07 148 ft / 45 m 8,403 ft / 2,561 m 72.93° 67.82° Asphalt 0 ft / 0 m 200 ft / 61 m
25 148 ft / 45 m 8,403 ft / 2,561 m 252.95° 247.84° Asphalt 0 ft / 0 m 200 ft / 61 m

Map

Weather


0- 5 10 15 20 25 30 35+ Temperature / ° C

Clouds and Precipitation
Forecast for 2018-05-23 18:00 UTC. Updated 21 minutes ago

Ground ~20,000 ft ~40,000 ft Winds

METAR

LGAL 231720Z 00000KT 9999 FEW025 23/15 Q1015

TAF

Not found

Frequencies

Tower 123.80 MHz ALEXANDROUPOLIS TWR
Approach 123.80 MHz ALEXANDROUPOLIS APP
Warning: Do not use this data for real-world aviation or navigation. No guarantee of current accuracy is given.